createdAt,value
2022-12-16T14:23:58.993Z,17.90
2022-12-16T14:29:22.539Z,6.20
2022-12-16T14:34:54.494Z,6.20
2022-12-16T14:40:16.232Z,5.70
2022-12-16T14:45:55.394Z,6.10
2022-12-16T14:51:16.362Z,6.00
2022-12-16T14:56:40.871Z,5.90
2022-12-16T15:02:01.821Z,5.60
2022-12-16T15:07:31.479Z,5.20
2022-12-16T15:13:00.303Z,5.00
2022-12-16T15:18:22.535Z,4.90
2022-12-16T15:23:49.738Z,3.90
2022-12-16T15:29:11.633Z,3.40
2022-12-16T15:34:48.625Z,4.30
2022-12-16T15:40:09.193Z,4.40
2022-12-16T15:45:51.553Z,4.70
2022-12-16T15:51:29.211Z,4.50
2022-12-16T15:57:03.736Z,4.50
2022-12-16T16:02:44.023Z,4.70
2022-12-16T16:08:05.936Z,3.50
2022-12-16T16:13:28.513Z,3.60
2022-12-16T16:18:49.277Z,3.50
2022-12-16T16:27:32.728Z,3.60
2022-12-16T16:32:53.601Z,4.30
2022-12-16T16:38:18.395Z,3.70
2022-12-16T16:43:40.521Z,3.70
2022-12-16T16:49:01.397Z,3.90
2022-12-16T16:54:22.069Z,4.00
2022-12-16T16:59:43.219Z,3.70
2022-12-16T17:05:03.943Z,3.60
2022-12-16T17:10:25.374Z,2.80
2022-12-16T17:15:54.439Z,3.20
2022-12-16T17:21:15.215Z,4.00
2022-12-16T17:26:36.562Z,4.40
2022-12-16T17:31:57.274Z,4.10
2022-12-16T17:37:17.997Z,4.40
2022-12-16T17:42:44.715Z,4.40
2022-12-16T17:48:07.087Z,4.60
2022-12-16T17:53:27.754Z,4.50
2022-12-16T17:58:57.027Z,4.60
2022-12-16T18:04:18.094Z,4.80
2022-12-16T18:09:39.648Z,4.80
2022-12-16T18:15:00.387Z,4.70
2022-12-16T18:20:21.071Z,4.90
2022-12-16T18:25:41.562Z,5.00
2022-12-16T18:31:02.194Z,4.90
2022-12-16T18:36:23.579Z,5.00
2022-12-16T18:41:44.150Z,4.90
2022-12-16T18:47:06.216Z,4.90
2022-12-16T18:52:29.730Z,4.90
2022-12-16T18:57:50.474Z,4.80
2022-12-16T19:03:11.265Z,4.60
2022-12-16T19:08:32.279Z,4.70
2022-12-16T19:13:53.323Z,4.40
2022-12-16T19:19:19.367Z,4.50
2022-12-16T19:24:40.833Z,4.30
2022-12-16T19:30:01.624Z,4.20
2022-12-16T19:35:22.642Z,4.00
2022-12-16T19:40:43.440Z,3.60
2022-12-16T19:46:14.015Z,3.50
2022-12-16T19:51:34.577Z,3.50
2022-12-16T19:56:55.396Z,3.10
2022-12-16T20:02:16.094Z,3.70
2022-12-16T20:07:37.229Z,4.10
2022-12-16T20:12:57.676Z,2.70
2022-12-16T20:18:18.302Z,3.30
2022-12-16T20:23:40.094Z,3.40
2022-12-16T20:29:01.862Z,3.30
2022-12-16T20:34:22.569Z,4.00
2022-12-16T20:39:49.450Z,4.10
2022-12-16T20:45:13.800Z,4.00
2022-12-16T20:50:34.142Z,4.30
2022-12-16T20:55:56.127Z,3.70
2022-12-16T21:01:16.850Z,3.60
2022-12-16T21:06:37.874Z,4.00
2022-12-16T21:11:58.488Z,4.00
2022-12-16T21:17:19.301Z,4.30
2022-12-16T21:22:40.391Z,4.40
2022-12-16T21:28:01.001Z,4.30
2022-12-16T21:33:21.709Z,4.20
2022-12-16T21:38:42.301Z,4.20
2022-12-16T21:44:03.173Z,4.20
2022-12-16T21:49:23.574Z,4.30
2022-12-16T21:54:44.398Z,4.40
2022-12-16T22:00:05.046Z,4.30
2022-12-16T22:05:31.009Z,3.80
2022-12-16T22:10:51.867Z,4.40
2022-12-16T22:16:18.377Z,4.50
2022-12-16T22:21:39.495Z,4.40
2022-12-16T22:27:00.176Z,4.30
2022-12-16T22:32:21.032Z,4.10
2022-12-16T22:37:41.459Z,4.00
2022-12-16T22:43:02.119Z,3.90
2022-12-16T22:48:23.015Z,3.60
2022-12-16T22:53:45.125Z,3.80
2022-12-16T22:59:07.656Z,3.60
2022-12-16T23:04:29.303Z,2.50
2022-12-16T23:09:50.153Z,2.70
2022-12-16T23:15:15.473Z,3.20
2022-12-16T23:20:36.183Z,3.70
2022-12-16T23:25:57.100Z,3.50
2022-12-16T23:31:18.155Z,3.20
2022-12-16T23:36:39.861Z,2.50
2022-12-16T23:42:00.646Z,1.60
2022-12-16T23:47:21.229Z,1.80
2022-12-16T23:52:42.074Z,2.50
2022-12-16T23:58:02.656Z,1.20
